Time;durP1;ratioP1;P1;durP2;ratioP2;P2;SDS_P1;SDS_P2;PMS_P1;PMS_P2;Temp;Humidity;BMP_temperature;BMP_pressure;BME280_temperature;BME280_humidity;BME280_pressure;Samples;Min_cycle;Max_cycle;Signal;HPM_P1;HPM_P2
2024/02/18 00:00:50;;;;;;;2.65;1.30;;;22.80;43.40;;;;;;5093506;28;20277;-61
2024/02/18 00:03:16;;;;;;;3.08;1.17;;;22.80;44.10;;;;;;5093569;28;20273;-61
2024/02/18 00:05:46;;;;;;;2.22;1.13;;;22.80;43.50;;;;;;5093300;28;20190;-61
2024/02/18 00:08:13;;;;;;;2.55;1.30;;;22.80;43.50;;;;;;5093444;28;20196;-63
2024/02/18 00:10:40;;;;;;;3.13;1.23;;;22.80;43.50;;;;;;5093396;28;20186;-60
2024/02/18 00:13:08;;;;;;;3.75;1.20;;;22.80;43.50;;;;;;5093315;28;20270;-61
2024/02/18 00:15:35;;;;;;;4.35;1.50;;;22.80;43.50;;;;;;5093022;28;20186;-62
2024/02/18 00:18:02;;;;;;;2.65;1.10;;;22.80;43.50;;;;;;5093072;28;20214;-62
2024/02/18 00:20:29;;;;;;;3.58;1.38;;;22.80;43.50;;;;;;5092910;28;20193;-62
2024/02/18 00:22:58;;;;;;;2.53;1.20;;;22.80;43.50;;;;;;5093367;28;20296;-61
2024/02/18 00:25:24;;;;;;;1.67;0.90;;;22.80;44.20;;;;;;5093132;28;20188;-62
2024/02/18 00:27:51;;;;;;;2.67;1.02;;;22.80;43.50;;;;;;5092743;28;20759;-61
2024/02/18 00:30:18;;;;;;;4.00;1.40;;;22.80;43.50;;;;;;5092731;28;20311;-62
2024/02/18 00:32:45;;;;;;;2.00;1.10;;;22.80;43.50;;;;;;5093204;28;20312;-60
2024/02/18 00:35:12;;;;;;;2.35;1.05;;;22.80;43.50;;;;;;5092395;28;20674;-61
2024/02/18 00:37:38;;;;;;;2.90;1.02;;;22.80;43.50;;;;;;5092767;28;20218;-61
2024/02/18 00:40:09;;;;;;;4.15;1.45;;;22.80;43.50;;;;;;5092800;28;20228;-62
2024/02/18 00:42:35;;;;;;;3.75;1.17;;;22.80;43.50;;;;;;5092815;28;20245;-61
2024/02/18 00:45:02;;;;;;;3.22;1.10;;;22.80;43.50;;;;;;5092825;28;20280;-61
2024/02/18 00:47:29;;;;;;;3.33;1.30;;;22.80;43.50;;;;;;5092865;28;20245;-60
2024/02/18 00:49:56;;;;;;;1.65;0.85;;;22.80;43.50;;;;;;5092584;28;20201;-61
2024/02/18 00:52:23;;;;;;;3.28;1.10;;;22.80;43.50;;;;;;5092798;28;20220;-60
2024/02/18 00:54:50;;;;;;;2.78;1.10;;;22.80;43.50;;;;;;5092720;28;20190;-61
2024/02/18 00:57:18;;;;;;;4.65;1.35;;;22.80;43.60;;;;;;5091459;28;20224;-61
2024/02/18 00:59:45;;;;;;;3.03;1.38;;;22.80;43.60;;;;;;5092624;28;20226;-60
2024/02/18 01:02:12;;;;;;;2.35;1.10;;;22.80;43.60;;;;;;5092777;28;20304;-62
2024/02/18 01:04:39;;;;;;;1.75;0.85;;;22.80;43.60;;;;;;5092270;28;20186;-61
2024/02/18 01:07:05;;;;;;;2.65;1.05;;;22.80;43.60;;;;;;5092272;28;20782;-61
2024/02/18 01:09:32;;;;;;;2.03;1.30;;;22.80;43.60;;;;;;5090653;28;20277;-61
2024/02/18 01:11:59;;;;;;;2.42;1.20;;;22.80;43.60;;;;;;5075274;28;20481;-61
2024/02/18 01:14:27;;;;;;;2.90;1.27;;;22.80;43.60;;;;;;5072204;28;20189;-61
2024/02/18 01:16:54;;;;;;;3.28;1.20;;;22.80;43.60;;;;;;5071948;28;20250;-61
2024/02/18 01:19:21;;;;;;;3.53;1.42;;;22.80;43.70;;;;;;5071971;28;20297;-61
2024/02/18 01:21:48;;;;;;;1.95;0.82;;;22.80;43.60;;;;;;5072553;28;20299;-61
2024/02/18 01:24:15;;;;;;;1.92;1.10;;;22.80;43.70;;;;;;5072334;28;20674;-62
2024/02/18 01:26:41;;;;;;;2.47;0.90;;;22.80;43.70;;;;;;5071674;28;20730;-61
2024/02/18 01:29:08;;;;;;;3.03;1.30;;;22.80;44.30;;;;;;5071789;28;20237;-61
2024/02/18 01:31:36;;;;;;;3.33;1.13;;;22.80;43.60;;;;;;5072331;28;20314;-61
2024/02/18 01:34:03;;;;;;;2.40;1.30;;;22.80;43.60;;;;;;5071909;28;20191;-61
2024/02/18 01:36:30;;;;;;;3.70;1.17;;;22.80;43.70;;;;;;5072080;28;20215;-61
2024/02/18 01:38:57;;;;;;;3.40;1.40;;;22.80;43.60;;;;;;5072086;28;20656;-61
2024/02/18 01:41:24;;;;;;;4.43;1.10;;;22.80;43.60;;;;;;5071723;28;20221;-61
2024/02/18 01:43:51;;;;;;;2.67;1.13;;;22.80;43.60;;;;;;5072070;28;20183;-61
2024/02/18 01:46:18;;;;;;;3.05;1.17;;;22.80;43.60;;;;;;5071980;28;20301;-61
2024/02/18 01:48:47;;;;;;;2.13;0.85;;;22.80;43.60;;;;;;5071511;28;20294;-61
2024/02/18 01:51:14;;;;;;;2.60;1.10;;;22.80;43.60;;;;;;5071559;28;20574;-60
2024/02/18 01:53:42;;;;;;;3.85;1.05;;;22.80;43.60;;;;;;5071899;28;20283;-61
2024/02/18 01:56:10;;;;;;;3.88;1.30;;;22.80;43.60;;;;;;5071294;28;20592;-61
2024/02/18 01:58:38;;;;;;;3.17;1.00;;;22.80;43.70;;;;;;5071722;28;20282;-61
2024/02/18 02:01:05;;;;;;;2.17;0.90;;;22.80;43.60;;;;;;5071822;28;20282;-61
2024/02/18 02:03:33;;;;;;;2.55;1.00;;;22.80;43.70;;;;;;5071564;28;20245;-60
2024/02/18 02:06:02;;;;;;;3.70;1.63;;;22.80;43.70;;;;;;5071654;28;20270;-61
2024/02/18 02:08:29;;;;;;;2.08;0.70;;;22.80;43.70;;;;;;5071605;28;20643;-61
2024/02/18 02:10:56;;;;;;;3.88;1.50;;;22.80;43.70;;;;;;5075256;28;20295;-61
2024/02/18 02:13:23;;;;;;;2.28;0.95;;;22.80;43.70;;;;;;5075524;28;20218;-61
2024/02/18 02:15:50;;;;;;;2.33;1.02;;;22.80;43.70;;;;;;5075344;28;20203;-61
2024/02/18 02:18:17;;;;;;;2.97;0.90;;;22.80;43.70;;;;;;5074934;28;20246;-61
2024/02/18 02:20:44;;;;;;;1.50;0.90;;;22.80;43.70;;;;;;5075086;28;20211;-62
2024/02/18 02:23:12;;;;;;;2.13;1.05;;;22.80;43.70;;;;;;5075469;28;20254;-61
2024/02/18 02:25:39;;;;;;;3.22;0.90;;;22.70;43.60;;;;;;5074940;28;20219;-61
2024/02/18 02:28:13;;;;;;;2.25;0.95;;;22.70;43.60;;;;;;5075182;28;20223;-61
2024/02/18 02:30:42;;;;;;;2.78;1.33;;;22.70;43.60;;;;;;5075082;28;20214;-61
2024/02/18 02:33:09;;;;;;;3.00;1.20;;;22.70;43.60;;;;;;5074736;28;20306;-61
2024/02/18 02:35:37;;;;;;;3.30;0.90;;;22.80;43.70;;;;;;5074986;28;20266;-61
2024/02/18 02:38:04;;;;;;;3.78;1.08;;;22.80;43.70;;;;;;5074768;28;20696;-60
2024/02/18 02:40:31;;;;;;;3.47;1.23;;;22.80;43.70;;;;;;5074618;28;20301;-61
2024/02/18 02:42:58;;;;;;;2.25;1.13;;;22.70;43.60;;;;;;5075046;28;20218;-60
2024/02/18 02:45:25;;;;;;;2.58;0.88;;;22.80;43.70;;;;;;5074829;28;20216;-61
2024/02/18 02:47:53;;;;;;;2.83;1.00;;;22.80;44.30;;;;;;5074646;28;20250;-61
2024/02/18 02:50:20;;;;;;;3.15;0.93;;;22.80;43.70;;;;;;5074766;28;20283;-61
2024/02/18 02:52:47;;;;;;;2.60;1.00;;;22.80;43.70;;;;;;5074389;28;20312;-61
2024/02/18 02:55:14;;;;;;;2.55;1.00;;;22.80;44.30;;;;;;5074416;28;20279;-61
2024/02/18 02:57:41;;;;;;;3.10;1.00;;;22.80;43.70;;;;;;5074623;28;20309;-62
2024/02/18 03:00:10;;;;;;;3.65;1.10;;;22.80;43.70;;;;;;5074548;28;20317;-61
2024/02/18 03:02:37;;;;;;;4.63;1.40;;;22.70;43.60;;;;;;5074248;28;20280;-61
2024/02/18 03:05:06;;;;;;;3.58;1.08;;;22.80;43.70;;;;;;5074448;28;20190;-61
2024/02/18 03:07:33;;;;;;;1.80;1.00;;;22.70;43.60;;;;;;5074508;28;20313;-61
2024/02/18 03:10:00;;;;;;;2.60;0.95;;;22.70;43.60;;;;;;5074154;28;20632;-61
2024/02/18 03:12:28;;;;;;;2.88;1.10;;;22.80;43.70;;;;;;5074379;28;20250;-61
2024/02/18 03:14:54;;;;;;;3.60;1.30;;;22.70;43.60;;;;;;5074258;28;20286;-61
2024/02/18 03:17:21;;;;;;;3.75;1.40;;;22.70;43.60;;;;;;5073994;28;20316;-62
2024/02/18 03:19:49;;;;;;;3.83;1.23;;;22.70;43.60;;;;;;5073845;28;20242;-61
2024/02/18 03:22:21;;;;;;;1.67;0.93;;;22.70;43.60;;;;;;5073113;28;20246;-63
2024/02/18 03:24:49;;;;;;;2.92;1.00;;;22.70;43.60;;;;;;5073628;28;20558;-61
2024/02/18 03:27:17;;;;;;;3.13;1.02;;;22.70;43.60;;;;;;5073684;28;20225;-60
2024/02/18 03:29:44;;;;;;;4.43;1.15;;;22.70;43.60;;;;;;5073729;28;20231;-61
2024/02/18 03:32:11;;;;;;;2.00;1.13;;;22.70;43.70;;;;;;5073890;28;20314;-62
2024/02/18 03:34:38;;;;;;;2.47;1.20;;;22.70;43.60;;;;;;5073791;28;20245;-62
2024/02/18 03:37:05;;;;;;;3.17;0.82;;;22.70;43.60;;;;;;5073498;28;20215;-61
2024/02/18 03:39:33;;;;;;;2.80;0.95;;;22.70;43.60;;;;;;5073242;28;20261;-61
2024/02/18 03:42:00;;;;;;;3.30;1.13;;;22.70;43.60;;;;;;5073673;28;20222;-61
2024/02/18 03:44:27;;;;;;;2.85;1.00;;;22.70;43.60;;;;;;5073651;28;20187;-63
2024/02/18 03:46:54;;;;;;;2.72;0.90;;;22.70;43.60;;;;;;5073500;28;20301;-61
2024/02/18 03:49:21;;;;;;;4.18;0.95;;;22.80;43.70;;;;;;5073284;28;20290;-61
2024/02/18 03:51:48;;;;;;;2.97;1.10;;;22.80;43.70;;;;;;5073503;28;20595;-61
2024/02/18 03:54:14;;;;;;;2.90;0.95;;;22.70;43.60;;;;;;5073264;28;20187;-62
2024/02/18 03:56:43;;;;;;;3.40;1.10;;;22.70;43.60;;;;;;5073055;28;20215;-61
2024/02/18 03:59:10;;;;;;;4.00;1.00;;;22.70;43.60;;;;;;5072981;28;20279;-61
2024/02/18 04:01:37;;;;;;;2.83;0.80;;;22.70;43.60;;;;;;5072812;28;20712;-61
2024/02/18 04:04:04;;;;;;;2.42;0.90;;;22.80;43.70;;;;;;5073258;28;20187;-61
2024/02/18 04:06:31;;;;;;;2.20;0.98;;;22.80;43.70;;;;;;5073177;28;20581;-62
2024/02/18 04:08:58;;;;;;;1.95;0.90;;;22.80;43.70;;;;;;5072660;28;20559;-61
2024/02/18 04:11:24;;;;;;;1.95;0.80;;;22.70;43.60;;;;;;5072796;28;20195;-60
2024/02/18 04:13:53;;;;;;;3.92;1.17;;;22.70;43.60;;;;;;5073087;28;20187;-62
2024/02/18 04:16:19;;;;;;;2.33;1.08;;;22.70;43.60;;;;;;5072681;28;20209;-63
2024/02/18 04:18:46;;;;;;;2.88;0.90;;;22.70;43.60;;;;;;5073004;28;20187;-61
2024/02/18 04:21:13;;;;;;;2.88;1.08;;;22.70;43.60;;;;;;5072500;28;20258;-61
2024/02/18 04:23:40;;;;;;;2.25;1.02;;;22.70;43.60;;;;;;5072771;28;20277;-61
2024/02/18 04:26:07;;;;;;;2.92;1.30;;;22.70;43.60;;;;;;5072747;28;20282;-60
2024/02/18 04:28:35;;;;;;;3.03;1.02;;;22.70;43.60;;;;;;5072765;28;20327;-61
2024/02/18 04:31:03;;;;;;;2.03;0.80;;;22.70;43.60;;;;;;5072892;28;20195;-61
2024/02/18 04:33:30;;;;;;;1.95;1.00;;;22.70;43.60;;;;;;5072889;28;20257;-62
2024/02/18 04:35:57;;;;;;;2.42;1.00;;;22.70;43.60;;;;;;5072471;28;20661;-62
2024/02/18 04:38:24;;;;;;;3.00;1.10;;;22.70;43.60;;;;;;5072775;28;20309;-62
2024/02/18 04:40:51;;;;;;;1.85;1.10;;;22.60;43.50;;;;;;5072571;28;20218;-61
2024/02/18 04:43:18;;;;;;;2.40;1.08;;;22.70;43.60;;;;;;5072335;28;20585;-61
2024/02/18 04:45:46;;;;;;;3.80;1.00;;;22.70;43.60;;;;;;5072382;28;20724;-61
2024/02/18 04:48:15;;;;;;;2.17;0.88;;;22.70;43.60;;;;;;5072689;28;20244;-61
2024/02/18 04:50:42;;;;;;;1.75;0.85;;;22.70;43.60;;;;;;5072605;28;20198;-61
2024/02/18 04:53:09;;;;;;;2.05;0.80;;;22.70;43.60;;;;;;5072205;28;20257;-62
2024/02/18 04:55:36;;;;;;;2.67;1.02;;;22.70;43.60;;;;;;5072417;28;20282;-61
2024/02/18 04:58:03;;;;;;;2.30;0.90;;;22.70;43.60;;;;;;5072361;28;20217;-61
2024/02/18 05:00:30;;;;;;;3.03;1.05;;;22.70;43.60;;;;;;5072084;28;20250;-61
2024/02/18 05:02:57;;;;;;;2.33;1.17;;;22.80;43.70;;;;;;5072432;28;20298;-61
2024/02/18 05:05:25;;;;;;;3.53;1.23;;;22.70;43.60;;;;;;5072382;28;20568;-61
2024/02/18 05:07:52;;;;;;;2.38;0.90;;;22.70;43.60;;;;;;5072447;28;20242;-61
2024/02/18 05:10:19;;;;;;;3.05;1.20;;;22.70;43.60;;;;;;5072445;28;20224;-62
2024/02/18 05:12:46;;;;;;;2.33;0.80;;;22.70;43.60;;;;;;5072387;28;20214;-61
2024/02/18 05:15:13;;;;;;;2.58;0.90;;;22.70;43.60;;;;;;5072330;28;20197;-61
2024/02/18 05:17:40;;;;;;;4.82;1.63;;;22.70;44.20;;;;;;5072133;28;20310;-61
2024/02/18 05:20:09;;;;;;;2.55;1.17;;;22.70;43.60;;;;;;5071842;28;20684;-61
2024/02/18 05:22:40;;;;;;;2.97;1.15;;;22.70;43.60;;;;;;5072085;28;20592;-61
2024/02/18 05:25:07;;;;;;;2.58;0.85;;;22.70;43.60;;;;;;5072061;28;20182;-62
2024/02/18 05:27:34;;;;;;;2.30;1.00;;;22.70;43.60;;;;;;5072355;28;20217;-61
2024/02/18 05:30:01;;;;;;;2.70;0.98;;;22.70;43.60;;;;;;5071789;28;20237;-60
2024/02/18 05:32:28;;;;;;;2.88;0.90;;;22.70;43.60;;;;;;5072142;28;20225;-60
2024/02/18 05:34:55;;;;;;;5.35;1.20;;;22.70;43.60;;;;;;5071838;28;20277;-61
2024/02/18 05:37:22;;;;;;;2.90;0.93;;;22.60;43.50;;;;;;5072093;28;20215;-62
2024/02/18 05:39:50;;;;;;;3.15;0.82;;;22.70;43.60;;;;;;5071467;28;20641;-61
2024/02/18 05:42:17;;;;;;;1.67;0.80;;;22.70;43.60;;;;;;5072108;28;20305;-61
2024/02/18 05:44:44;;;;;;;3.13;1.10;;;22.60;43.50;;;;;;5074240;28;20191;-63
2024/02/18 05:47:11;;;;;;;1.98;0.85;;;22.70;43.70;;;;;;5075649;28;20577;-61
2024/02/18 05:49:38;;;;;;;2.97;1.05;;;22.70;43.60;;;;;;5075487;28;20286;-63
2024/02/18 05:52:05;;;;;;;1.92;0.90;;;22.70;43.60;;;;;;5075527;28;20225;-61
2024/02/18 05:54:32;;;;;;;3.03;0.93;;;22.70;43.60;;;;;;5075482;28;20213;-62
2024/02/18 05:57:00;;;;;;;2.03;0.98;;;22.70;43.60;;;;;;5075671;28;20305;-61
2024/02/18 05:59:27;;;;;;;1.80;0.90;;;22.70;43.60;;;;;;5075649;28;20201;-62
2024/02/18 06:01:54;;;;;;;2.40;1.05;;;22.70;43.60;;;;;;5075251;28;20668;-61
2024/02/18 06:04:21;;;;;;;2.70;1.10;;;22.70;43.60;;;;;;5075709;28;20648;-61
2024/02/18 06:06:47;;;;;;;1.92;0.90;;;22.70;43.60;;;;;;5075087;28;20302;-61
2024/02/18 06:09:14;;;;;;;2.35;0.88;;;22.70;43.60;;;;;;5075300;28;20282;-61
2024/02/18 06:11:41;;;;;;;2.30;0.73;;;22.70;43.60;;;;;;5075396;28;20230;-61
2024/02/18 06:14:09;;;;;;;2.17;0.68;;;22.70;43.60;;;;;;5075384;28;20281;-61
2024/02/18 06:16:36;;;;;;;1.65;0.82;;;22.70;43.60;;;;;;5074761;28;20278;-62
2024/02/18 06:19:03;;;;;;;1.88;0.80;;;22.70;43.60;;;;;;5075592;28;20187;-61
2024/02/18 06:21:30;;;;;;;2.65;0.80;;;22.70;43.70;;;;;;5075135;28;20219;-61
2024/02/18 06:23:57;;;;;;;1.27;0.63;;;22.70;43.70;;;;;;5074733;28;20277;-61
2024/02/18 06:26:24;;;;;;;2.83;0.88;;;22.70;43.70;;;;;;5075109;28;20191;-63
2024/02/18 06:28:51;;;;;;;2.97;0.63;;;22.70;43.80;;;;;;5074880;28;20670;-61
2024/02/18 06:31:19;;;;;;;1.00;0.60;;;22.60;43.70;;;;;;5075173;28;20205;-60
2024/02/18 06:33:46;;;;;;;1.17;0.60;;;22.70;43.90;;;;;;5075376;28;20290;-61
2024/02/18 06:36:13;;;;;;;3.70;0.63;;;22.70;43.90;;;;;;5074956;28;20266;-61
2024/02/18 06:38:42;;;;;;;1.73;0.85;;;22.70;43.90;;;;;;5074995;28;20214;-62
2024/02/18 06:41:09;;;;;;;2.05;0.60;;;22.60;43.80;;;;;;5074915;28;20229;-62
2024/02/18 06:43:36;;;;;;;1.42;0.60;;;22.70;43.90;;;;;;5075123;28;20219;-63
2024/02/18 06:46:03;;;;;;;2.38;0.85;;;22.70;43.90;;;;;;5074600;28;20197;-61
2024/02/18 06:48:31;;;;;;;3.00;0.70;;;22.70;43.90;;;;;;5074986;28;20220;-61
2024/02/18 06:50:58;;;;;;;1.17;0.65;;;22.70;43.90;;;;;;5074776;28;20267;-61
2024/02/18 06:53:25;;;;;;;1.50;0.73;;;22.70;44.00;;;;;;5074255;28;20373;-61
2024/02/18 06:55:52;;;;;;;2.33;0.60;;;22.70;44.00;;;;;;5073318;28;20189;-61
2024/02/18 06:58:19;;;;;;;1.50;0.70;;;22.70;44.00;;;;;;5074523;28;20306;-61
2024/02/18 07:00:46;;;;;;;2.22;0.60;;;22.70;44.00;;;;;;5074328;28;20625;-61
2024/02/18 07:03:13;;;;;;;2.88;0.90;;;22.70;44.00;;;;;;5074394;28;20221;-61
2024/02/18 07:05:42;;;;;;;1.73;0.70;;;22.70;44.00;;;;;;5074449;28;20274;-61
2024/02/18 07:08:09;;;;;;;1.85;0.70;;;22.70;44.00;;;;;;5073984;28;20704;-61
2024/02/18 07:10:36;;;;;;;3.90;0.98;;;22.70;44.00;;;;;;5074128;28;20191;-61
2024/02/18 07:13:03;;;;;;;2.83;0.70;;;22.80;44.10;;;;;;5074442;28;20218;-61
2024/02/18 07:15:30;;;;;;;2.28;0.80;;;22.80;44.10;;;;;;5073786;28;20735;-62
2024/02/18 07:17:57;;;;;;;2.33;0.80;;;22.80;44.10;;;;;;5073997;28;20214;-62
2024/02/18 07:20:25;;;;;;;2.63;1.08;;;22.70;44.00;;;;;;5074102;28;20309;-61
2024/02/18 07:22:53;;;;;;;1.45;0.70;;;22.70;44.10;;;;;;5073945;28;20268;-61
2024/02/18 07:25:21;;;;;;;1.95;0.80;;;22.70;44.10;;;;;;5073814;28;20649;-62
2024/02/18 07:27:48;;;;;;;1.30;0.77;;;22.70;44.10;;;;;;5073887;28;20307;-61
2024/02/18 07:30:15;;;;;;;2.00;0.80;;;22.70;44.20;;;;;;5073597;28;20241;-61
2024/02/18 07:32:42;;;;;;;1.02;0.70;;;22.70;44.20;;;;;;5074044;28;20219;-61
2024/02/18 07:35:09;;;;;;;2.35;0.90;;;22.70;44.20;;;;;;5073552;28;20199;-62
2024/02/18 07:37:36;;;;;;;1.17;0.65;;;22.70;44.30;;;;;;5073450;28;20228;-62
2024/02/18 07:40:05;;;;;;;1.35;0.60;;;22.70;44.30;;;;;;5073923;28;20195;-61
2024/02/18 07:42:32;;;;;;;4.45;1.05;;;22.70;44.40;;;;;;5073710;28;20281;-61
2024/02/18 07:44:59;;;;;;;1.45;0.70;;;22.70;44.40;;;;;;5073603;28;20274;-60
2024/02/18 07:47:26;;;;;;;3.15;0.82;;;22.70;44.30;;;;;;5073315;28;20310;-62
2024/02/18 07:49:53;;;;;;;2.30;0.82;;;22.70;44.40;;;;;;5073213;28;20274;-64
2024/02/18 07:52:20;;;;;;;2.97;0.80;;;22.70;44.40;;;;;;5073486;28;20310;-61
2024/02/18 07:54:46;;;;;;;3.33;1.08;;;22.70;44.50;;;;;;5073476;28;20195;-61
2024/02/18 07:57:15;;;;;;;1.48;0.90;;;22.70;44.50;;;;;;5073287;28;20214;-61
2024/02/18 07:59:42;;;;;;;2.65;0.90;;;22.70;44.50;;;;;;5073156;28;20193;-61
2024/02/18 08:02:09;;;;;;;3.10;0.90;;;22.70;44.50;;;;;;5073243;28;20234;-63
2024/02/18 08:04:36;;;;;;;2.65;0.77;;;22.80;44.50;;;;;;5073262;28;20187;-61
2024/02/18 08:07:03;;;;;;;1.80;0.65;;;22.80;44.60;;;;;;5072669;28;20217;-61
2024/02/18 08:09:30;;;;;;;1.30;0.70;;;22.80;44.60;;;;;;5073219;28;20187;-61
2024/02/18 08:11:57;;;;;;;1.08;0.70;;;22.80;44.60;;;;;;5073427;28;20305;-62
2024/02/18 08:14:26;;;;;;;2.50;0.70;;;22.80;44.60;;;;;;5072943;28;20187;-61
2024/02/18 08:16:53;;;;;;;2.08;0.52;;;22.80;44.60;;;;;;5072834;28;20305;-61
2024/02/18 08:19:20;;;;;;;1.83;0.80;;;22.70;44.50;;;;;;5073011;28;20222;-62
2024/02/18 08:21:47;;;;;;;2.05;0.90;;;22.80;44.60;;;;;;5072677;28;20218;-62
2024/02/18 08:24:15;;;;;;;2.88;0.90;;;22.70;44.50;;;;;;5072659;28;20193;-61
2024/02/18 08:26:42;;;;;;;1.85;0.82;;;22.80;44.70;;;;;;5072481;28;20195;-60
2024/02/18 08:29:08;;;;;;;2.22;0.95;;;22.70;44.60;;;;;;5072409;28;20321;-62
2024/02/18 08:31:38;;;;;;;1.92;0.65;;;22.70;44.60;;;;;;5072975;28;20285;-61
2024/02/18 08:34:05;;;;;;;4.30;0.70;;;22.70;44.70;;;;;;5072777;28;20191;-62
2024/02/18 08:36:32;;;;;;;1.55;0.63;;;22.70;44.70;;;;;;5072099;28;20198;-61
2024/02/18 08:38:59;;;;;;;1.00;0.60;;;22.70;44.70;;;;;;5073073;28;20194;-62
2024/02/18 08:41:26;;;;;;;2.42;0.88;;;22.70;44.80;;;;;;5072345;28;20217;-63
2024/02/18 08:43:53;;;;;;;1.98;0.90;;;22.70;44.80;;;;;;5072595;28;20714;-61
2024/02/18 08:46:20;;;;;;;1.83;0.70;;;22.70;44.80;;;;;;5072588;28;20210;-63
2024/02/18 08:48:48;;;;;;;1.30;0.60;;;22.70;44.80;;;;;;5072478;28;20700;-61
2024/02/18 08:51:15;;;;;;;2.47;0.68;;;22.70;44.90;;;;;;5072139;28;20194;-61
2024/02/18 08:53:43;;;;;;;1.55;0.82;;;22.70;45.60;;;;;;5072489;28;20222;-62
2024/02/18 08:56:10;;;;;;;4.38;0.77;;;22.70;45.00;;;;;;5072474;28;20191;-63
2024/02/18 08:58:38;;;;;;;2.08;0.70;;;22.70;45.00;;;;;;5072455;28;20219;-61
2024/02/18 09:01:06;;;;;;;1.60;0.60;;;22.70;45.00;;;;;;5072390;28;20583;-61
2024/02/18 09:03:33;;;;;;;2.60;0.70;;;22.70;45.00;;;;;;5072668;28;20214;-61
2024/02/18 09:06:01;;;;;;;1.58;0.70;;;22.70;45.10;;;;;;5072117;28;20199;-61
2024/02/18 09:08:28;;;;;;;2.72;0.85;;;22.70;45.10;;;;;;5072597;28;20221;-62
2024/02/18 09:10:54;;;;;;;1.70;0.80;;;22.70;45.10;;;;;;5072432;28;20187;-61
2024/02/18 09:13:21;;;;;;;2.00;0.70;;;22.70;45.10;;;;;;5071990;28;20715;-61
2024/02/18 09:15:49;;;;;;;1.40;0.82;;;22.70;45.10;;;;;;5072309;28;20193;-61
2024/02/18 09:18:17;;;;;;;1.48;0.68;;;22.80;45.20;;;;;;5072395;28;20214;-61
2024/02/18 09:20:44;;;;;;;1.77;0.70;;;22.80;45.30;;;;;;5076142;28;20202;-62
2024/02/18 09:23:12;;;;;;;1.95;0.70;;;22.70;45.20;;;;;;5076259;28;20218;-61
2024/02/18 09:25:39;;;;;;;1.73;0.90;;;22.70;45.20;;;;;;5076344;28;20183;-61
2024/02/18 09:28:08;;;;;;;1.77;0.63;;;22.80;45.30;;;;;;5076188;28;20311;-62
2024/02/18 09:30:35;;;;;;;1.17;0.60;;;22.80;45.30;;;;;;5075857;28;20222;-61
2024/02/18 09:33:02;;;;;;;1.65;0.63;;;22.80;45.30;;;;;;5076357;28;20214;-63
2024/02/18 09:35:29;;;;;;;0.95;0.70;;;22.70;45.20;;;;;;5075959;28;20193;-61
2024/02/18 09:37:57;;;;;;;1.23;0.50;;;22.80;45.30;;;;;;5076167;28;20271;-61
2024/02/18 09:40:25;;;;;;;0.75;0.60;;;22.80;45.30;;;;;;5076077;28;20195;-62
2024/02/18 09:42:53;;;;;;;1.25;0.68;;;22.80;45.30;;;;;;5075818;28;20334;-62
2024/02/18 09:45:25;;;;;;;1.23;0.70;;;22.70;45.20;;;;;;5075756;28;20278;-61
2024/02/18 09:47:53;;;;;;;1.40;0.80;;;22.70;45.20;;;;;;5075657;28;20214;-61
2024/02/18 09:50:20;;;;;;;1.42;0.80;;;22.70;45.20;;;;;;5075608;28;20201;-61
2024/02/18 09:52:48;;;;;;;2.70;0.93;;;22.70;45.20;;;;;;5075784;28;20241;-61
2024/02/18 09:55:17;;;;;;;1.27;0.60;;;22.70;45.30;;;;;;5075457;28;20668;-61
2024/02/18 09:57:45;;;;;;;2.08;0.90;;;22.70;45.30;;;;;;5075468;28;20222;-60
2024/02/18 10:00:13;;;;;;;1.30;0.63;;;22.70;45.30;;;;;;5075338;28;20197;-61
2024/02/18 10:02:42;;;;;;;1.75;0.77;;;22.70;45.30;;;;;;5075519;28;20234;-63
2024/02/18 10:05:10;;;;;;;0.90;0.60;;;22.70;45.40;;;;;;5074981;28;20667;-62
2024/02/18 10:07:37;;;;;;;1.15;0.60;;;22.70;45.40;;;;;;5075483;28;20215;-61
2024/02/18 10:10:05;;;;;;;0.93;0.70;;;22.70;45.40;;;;;;5075471;28;20274;-61
2024/02/18 10:12:34;;;;;;;0.90;0.60;;;22.70;45.40;;;;;;5074989;28;20294;-61
2024/02/18 10:15:04;;;;;;;0.95;0.60;;;22.70;45.40;;;;;;5075429;28;20189;-61
2024/02/18 10:17:31;;;;;;;0.95;0.60;;;22.70;45.40;;;;;;5075367;28;20214;-61
2024/02/18 10:19:59;;;;;;;0.95;0.60;;;22.70;45.40;;;;;;5074843;28;20637;-61
2024/02/18 10:22:26;;;;;;;2.05;0.70;;;22.70;45.50;;;;;;5074880;28;20696;-62
2024/02/18 10:24:54;;;;;;;1.00;0.68;;;22.80;45.50;;;;;;5074996;28;20187;-61
2024/02/18 10:27:21;;;;;;;1.70;0.70;;;22.70;45.40;;;;;;5074733;28;20246;-61
2024/02/18 10:29:48;;;;;;;1.17;0.80;;;22.80;45.50;;;;;;5074720;28;20238;-62
2024/02/18 10:32:18;;;;;;;0.95;0.73;;;22.80;45.50;;;;;;5075008;28;20215;-61
2024/02/18 10:34:45;;;;;;;1.42;0.80;;;22.80;45.60;;;;;;5074814;28;20218;-60
2024/02/18 10:37:21;;;;;;;1.10;0.68;;;22.70;45.50;;;;;;5074971;28;20301;-61
2024/02/18 10:39:51;;;;;;;1.17;0.82;;;22.80;45.60;;;;;;5074596;28;20619;-61
2024/02/18 10:42:21;;;;;;;1.20;0.75;;;22.80;45.60;;;;;;5074668;28;20311;-61
2024/02/18 10:44:52;;;;;;;1.23;0.80;;;22.80;45.60;;;;;;5074871;28;20187;-62
2024/02/18 10:47:24;;;;;;;1.40;0.95;;;22.70;45.60;;;;;;5074556;28;20779;-61
2024/02/18 10:49:56;;;;;;;1.67;0.80;;;22.80;45.70;;;;;;5074851;28;20195;-62
2024/02/18 10:52:29;;;;;;;1.40;0.68;;;22.70;45.60;;;;;;5039143;28;20221;-62
2024/02/18 10:55:03;;;;;;;0.80;0.60;;;22.70;45.60;;;;;;5074616;28;20282;-63
2024/02/18 10:57:39;;;;;;;1.63;0.85;;;22.70;45.70;;;;;;5074697;28;20218;-61
2024/02/18 11:00:11;;;;;;;2.50;0.90;;;22.70;45.70;;;;;;5074590;28;20274;-61
2024/02/18 11:02:46;;;;;;;1.08;0.80;;;22.80;45.80;;;;;;5074276;28;20715;-62
2024/02/18 11:05:14;;;;;;;1.00;0.80;;;22.70;45.70;;;;;;5073935;28;20191;-62
2024/02/18 11:07:42;;;;;;;1.05;0.95;;;22.70;45.70;;;;;;5074470;28;20309;-61
2024/02/18 11:10:09;;;;;;;1.00;0.80;;;22.70;45.80;;;;;;5074406;28;20190;-61
2024/02/18 11:12:37;;;;;;;2.45;0.80;;;22.70;45.80;;;;;;5074231;28;20225;-61
2024/02/18 11:15:07;;;;;;;1.05;0.80;;;22.80;45.90;;;;;;5074054;28;20706;-61
2024/02/18 11:17:35;;;;;;;1.92;1.02;;;22.70;45.90;;;;;;5074199;28;20302;-62
2024/02/18 11:20:04;;;;;;;1.38;0.82;;;22.70;45.90;;;;;;5073781;28;20278;-61
2024/02/18 11:22:33;;;;;;;1.25;1.00;;;22.80;45.90;;;;;;5074152;28;20231;-61
2024/02/18 11:24:59;;;;;;;1.42;1.00;;;22.70;45.90;;;;;;5074207;28;20274;-62
2024/02/18 11:27:27;;;;;;;1.65;0.82;;;22.80;45.90;;;;;;5073801;28;20225;-61
2024/02/18 11:29:54;;;;;;;1.30;0.80;;;22.80;46.00;;;;;;5073715;28;20331;-63
2024/02/18 11:32:20;;;;;;;1.23;0.85;;;22.80;45.90;;;;;;5073790;28;20700;-61
2024/02/18 11:34:47;;;;;;;2.17;1.00;;;22.70;45.90;;;;;;5073460;28;20281;-64
2024/02/18 11:37:30;;;;;;;1.35;0.90;;;22.80;46.00;;;;;;5073848;28;20305;-61
2024/02/18 11:40:00;;;;;;;1.45;0.90;;;22.80;46.00;;;;;;5073813;28;20187;-61
2024/02/18 11:42:28;;;;;;;1.50;0.82;;;22.80;46.30;;;;;;5072834;28;20235;-61
2024/02/18 11:45:11;;;;;;;1.10;0.80;;;22.80;46.00;;;;;;5073697;28;20187;-61
2024/02/18 11:47:38;;;;;;;1.63;0.90;;;22.80;46.10;;;;;;5073151;28;20224;-61
2024/02/18 11:50:08;;;;;;;1.40;0.98;;;22.80;46.10;;;;;;5073631;28;20273;-62
2024/02/18 11:52:37;;;;;;;2.83;1.10;;;22.80;46.10;;;;;;5073484;28;20304;-61
2024/02/18 11:55:12;;;;;;;1.25;0.70;;;22.80;46.10;;;;;;5073096;28;20700;-62
2024/02/18 11:57:39;;;;;;;1.50;1.00;;;22.80;46.10;;;;;;5073468;28;20245;-61
2024/02/18 12:00:10;;;;;;;1.38;1.00;;;22.80;46.10;;;;;;5073345;28;20270;-61
2024/02/18 12:02:37;;;;;;;1.23;0.85;;;22.80;46.20;;;;;;5073143;28;20234;-61
2024/02/18 12:05:06;;;;;;;1.83;1.10;;;22.80;46.20;;;;;;5073387;28;20282;-62
2024/02/18 12:07:33;;;;;;;1.13;0.70;;;22.80;46.20;;;;;;5073285;28;20301;-62
2024/02/18 12:10:02;;;;;;;1.65;0.93;;;22.80;46.20;;;;;;5072802;28;20187;-61
2024/02/18 12:12:28;;;;;;;2.28;0.90;;;22.80;46.20;;;;;;5073211;28;20317;-61
2024/02/18 12:14:55;;;;;;;1.52;1.00;;;22.80;46.20;;;;;;5073195;28;20214;-61
2024/02/18 12:17:23;;;;;;;0.98;0.90;;;22.80;46.20;;;;;;5072817;28;20303;-62
2024/02/18 12:19:51;;;;;;;1.25;1.10;;;22.80;46.20;;;;;;5072716;28;20194;-60
2024/02/18 12:22:21;;;;;;;1.65;1.08;;;22.80;46.20;;;;;;5072992;28;20226;-62
2024/02/18 12:24:49;;;;;;;1.50;0.80;;;22.70;46.20;;;;;;5073059;28;20214;-61
2024/02/18 12:27:18;;;;;;;1.42;0.90;;;22.80;46.30;;;;;;5072509;28;20712;-61
2024/02/18 12:29:45;;;;;;;1.45;1.00;;;22.80;46.30;;;;;;5072660;28;20252;-62
2024/02/18 12:32:13;;;;;;;1.38;0.80;;;22.80;46.30;;;;;;5072535;28;20309;-62
2024/02/18 12:34:40;;;;;;;2.45;0.77;;;22.80;46.30;;;;;;5072733;28;20190;-62
2024/02/18 12:37:07;;;;;;;2.17;1.00;;;22.80;46.30;;;;;;5072484;28;20827;-61
2024/02/18 12:39:34;;;;;;;1.50;1.02;;;22.80;46.30;;;;;;5072588;28;20214;-63
2024/02/18 12:42:01;;;;;;;1.40;0.80;;;22.80;46.40;;;;;;5072600;28;20187;-62
2024/02/18 12:44:30;;;;;;;1.60;0.90;;;22.80;46.30;;;;;;5072724;28;20278;-61
2024/02/18 12:46:57;;;;;;;1.25;0.93;;;22.80;46.30;;;;;;5072027;28;20608;-63
2024/02/18 12:49:26;;;;;;;1.38;1.00;;;22.80;46.30;;;;;;5072640;28;20620;-62